Time;durP1;ratioP1;P1;durP2;ratioP2;P2;SDS_P1;SDS_P2;PMS_P1;PMS_P2;Temp;Humidity;BMP_temperature;BMP_pressure;BME280_temperature;BME280_humidity;BME280_pressure;Samples;Min_cycle;Max_cycle;Signal;HPM_P1;HPM_P2
2022/11/06 00:00:54;;;;;;;8.95;3.28;;;5.30;99.90;;;;;;5130706;27;20227;-83
2022/11/06 00:03:21;;;;;;;4.93;2.75;;;5.30;99.90;;;;;;5130004;27;20197;-82
2022/11/06 00:08:36;;;;;;;5.88;3.33;;;5.30;99.90;;;;;;5129478;27;20212;-82
2022/11/06 00:11:09;;;;;;;2.67;2.47;;;4.70;99.90;;;;;;5131002;27;20208;-82
2022/11/06 00:13:36;;;;;;;6.22;4.05;;;5.30;99.90;;;;;;5129594;27;20663;-82
2022/11/06 00:16:04;;;;;;;5.43;3.47;;;5.30;99.90;;;;;;5130109;27;20209;-82
2022/11/06 00:18:31;;;;;;;6.20;5.30;;;5.30;99.90;;;;;;5129225;27;20237;-83
2022/11/06 00:20:58;;;;;;;4.50;3.38;;;5.30;99.90;;;;;;5129988;27;20197;-82
2022/11/06 00:23:25;;;;;;;5.55;3.90;;;5.40;99.90;;;;;;5130057;27;20201;-82
2022/11/06 00:25:55;;;;;;;7.60;4.03;;;5.40;99.90;;;;;;5130785;27;20201;-82
2022/11/06 00:28:22;;;;;;;5.82;4.85;;;5.40;99.90;;;;;;5113888;27;20252;-82
2022/11/06 00:30:49;;;;;;;5.55;3.38;;;5.40;99.90;;;;;;5109405;28;20202;-82
2022/11/06 00:33:16;;;;;;;3.65;3.15;;;5.40;99.90;;;;;;5109467;28;20217;-82
2022/11/06 00:35:43;;;;;;;4.50;4.15;;;5.50;99.90;;;;;;5109352;28;20210;-82
2022/11/06 00:38:10;;;;;;;5.00;2.83;;;5.30;99.90;;;;;;5109055;28;20236;-82
2022/11/06 00:40:36;;;;;;;3.70;3.40;;;5.40;99.90;;;;;;5109203;28;20217;-84
2022/11/06 00:43:05;;;;;;;3.97;2.88;;;5.60;99.90;;;;;;5109485;28;20231;-82
2022/11/06 00:45:32;;;;;;;4.05;3.65;;;5.40;99.90;;;;;;5109705;28;20213;-81
2022/11/06 00:47:58;;;;;;;2.53;2.33;;;5.20;99.90;;;;;;5108445;28;20229;-82
2022/11/06 00:50:26;;;;;;;2.47;2.25;;;5.20;99.90;;;;;;5109167;28;20515;-82
2022/11/06 00:52:53;;;;;;;4.93;3.33;;;5.30;99.90;;;;;;5109400;28;20201;-82
2022/11/06 00:55:20;;;;;;;5.18;2.53;;;5.20;99.90;;;;;;5108722;28;20201;-82
2022/11/06 00:57:47;;;;;;;4.05;3.25;;;5.20;99.90;;;;;;5108627;28;20200;-82
2022/11/06 01:00:19;;;;;;;3.95;2.88;;;5.10;99.90;;;;;;5125562;27;20637;-82
2022/11/06 01:02:46;;;;;;;3.40;2.10;;;5.00;99.90;;;;;;5129647;27;20682;-82
2022/11/06 01:05:14;;;;;;;3.63;2.50;;;6.60;99.90;;;;;;5129459;27;20244;-82
2022/11/06 01:07:41;;;;;;;5.55;3.28;;;5.00;99.90;;;;;;5128606;27;20689;-82
2022/11/06 01:10:08;;;;;;;2.85;2.42;;;5.00;99.90;;;;;;5128376;27;20196;-82
2022/11/06 01:12:36;;;;;;;3.55;2.38;;;4.90;99.90;;;;;;5129531;27;20254;-82
2022/11/06 01:15:03;;;;;;;3.58;2.47;;;4.80;99.90;;;;;;5129047;27;20236;-82
2022/11/06 01:17:31;;;;;;;3.38;3.15;;;4.70;99.90;;;;;;5128119;27;20190;-82
2022/11/06 01:19:58;;;;;;;3.92;2.20;;;4.60;99.90;;;;;;5129125;27;20256;-83
2022/11/06 01:22:25;;;;;;;4.47;4.00;;;4.50;99.90;;;;;;5128682;27;20254;-82
2022/11/06 01:24:52;;;;;;;4.45;4.20;;;4.50;99.90;;;;;;5128811;27;20188;-82
2022/11/06 01:27:19;;;;;;;3.97;3.17;;;4.90;99.90;;;;;;5122647;27;20209;-82
2022/11/06 01:29:46;;;;;;;3.17;2.88;;;4.60;99.90;;;;;;5108155;28;20210;-82
2022/11/06 01:32:13;;;;;;;3.28;2.35;;;4.50;99.90;;;;;;5107651;28;20201;-82
2022/11/06 01:34:41;;;;;;;3.85;3.50;;;5.30;99.90;;;;;;5108323;28;20723;-82
2022/11/06 01:37:08;;;;;;;3.50;3.10;;;4.40;99.90;;;;;;5107491;28;20676;-84
2022/11/06 01:39:35;;;;;;;2.53;2.35;;;4.30;99.90;;;;;;5108416;28;20233;-82
2022/11/06 01:42:02;;;;;;;3.53;2.67;;;4.30;99.90;;;;;;5108737;28;20208;-82
2022/11/06 01:45:16;;;;;;;7.07;4.45;;;4.30;99.90;;;;;;5108489;28;20201;-82
2022/11/06 01:47:43;;;;;;;2.58;2.08;;;4.40;99.90;;;;;;5107772;28;20219;-82
2022/11/06 01:50:14;;;;;;;2.95;2.35;;;4.40;99.90;;;;;;5108266;28;20194;-82
2022/11/06 01:52:42;;;;;;;3.70;3.35;;;4.40;99.90;;;;;;5108243;28;20691;-83
2022/11/06 01:55:14;;;;;;;3.10;2.90;;;4.40;99.90;;;;;;5108019;28;20716;-82
2022/11/06 01:57:42;;;;;;;4.13;3.80;;;4.30;99.90;;;;;;5107673;28;20304;-82
2022/11/06 02:00:10;;;;;;;9.38;3.17;;;4.30;99.90;;;;;;5123494;28;20233;-82
2022/11/06 02:02:38;;;;;;;7.60;3.22;;;4.30;99.90;;;;;;5128222;27;20606;-82
2022/11/06 02:05:06;;;;;;;1.83;1.67;;;4.50;99.90;;;;;;5127718;27;20475;-83
2022/11/06 02:07:35;;;;;;;2.40;2.30;;;4.50;99.90;;;;;;5127229;28;20219;-82
2022/11/06 02:10:03;;;;;;;4.70;3.00;;;4.60;99.90;;;;;;5127880;27;20197;-82
2022/11/06 02:12:44;;;;;;;3.30;3.00;;;5.40;99.90;;;;;;5128221;27;20197;-84
2022/11/06 02:15:17;;;;;;;3.45;2.25;;;4.60;99.90;;;;;;5128350;27;20233;-82
2022/11/06 02:17:57;;;;;;;2.53;2.30;;;4.50;99.90;;;;;;5127784;28;20193;-82
2022/11/06 02:20:30;;;;;;;3.33;1.95;;;4.50;99.90;;;;;;5128245;27;20508;-82
2022/11/06 02:23:25;;;;;;;3.05;1.83;;;3.40;99.90;;;;;;5128010;27;20304;-82
2022/11/06 02:26:01;;;;;;;3.33;3.00;;;4.50;99.90;;;;;;5128707;27;20610;-82
2022/11/06 02:28:35;;;;;;;4.38;3.50;;;4.50;99.90;;;;;;5112427;27;20210;-82
2022/11/06 02:31:05;;;;;;;2.22;2.03;;;4.50;99.90;;;;;;5107376;28;20213;-82
2022/11/06 02:33:36;;;;;;;1.92;1.83;;;4.40;99.90;;;;;;5108111;28;20202;-82
2022/11/06 02:36:07;;;;;;;3.47;3.15;;;4.50;99.90;;;;;;5107983;28;20206;-82
2022/11/06 02:38:38;;;;;;;1.52;1.42;;;4.50;99.90;;;;;;5107507;28;20192;-82
2022/11/06 02:41:09;;;;;;;2.80;2.60;;;4.50;99.90;;;;;;5107726;28;20274;-82
2022/11/06 02:43:42;;;;;;;1.77;1.65;;;4.50;99.90;;;;;;5108976;28;20198;-82
2022/11/06 02:46:14;;;;;;;2.38;2.17;;;4.40;99.90;;;;;;5111671;28;20628;-82
2022/11/06 02:48:45;;;;;;;2.58;2.10;;;4.40;99.90;;;;;;5111487;28;20198;-82
2022/11/06 02:51:16;;;;;;;2.53;2.33;;;4.40;99.90;;;;;;5111591;28;20197;-82
2022/11/06 02:53:45;;;;;;;5.10;2.38;;;4.40;99.90;;;;;;5111458;28;20201;-82
2022/11/06 02:56:16;;;;;;;5.07;4.65;;;4.60;99.90;;;;;;5111202;28;20226;-82
2022/11/06 02:58:50;;;;;;;4.65;4.28;;;4.50;99.90;;;;;;5115107;27;20200;-82
2022/11/06 03:01:21;;;;;;;2.78;1.35;;;4.60;99.90;;;;;;5132151;27;20311;-82
2022/11/06 03:03:53;;;;;;;4.10;3.65;;;4.50;99.90;;;;;;5131741;27;20193;-82
2022/11/06 03:06:28;;;;;;;3.50;2.22;;;4.50;99.90;;;;;;5131226;27;20213;-83
2022/11/06 03:08:58;;;;;;;2.20;1.95;;;4.70;99.90;;;;;;5130851;27;20205;-84
2022/11/06 03:11:29;;;;;;;3.63;2.42;;;4.40;99.90;;;;;;5131993;27;20217;-83
2022/11/06 03:14:05;;;;;;;4.60;1.92;;;4.40;99.90;;;;;;5131533;27;20282;-81
2022/11/06 03:16:41;;;;;;;3.15;2.25;;;5.50;99.90;;;;;;5131036;27;20609;-82
2022/11/06 03:19:16;;;;;;;3.30;2.38;;;4.60;99.90;;;;;;5130726;27;20748;-82
2022/11/06 03:21:52;;;;;;;3.53;3.22;;;4.50;99.90;;;;;;5131412;27;20569;-83
2022/11/06 03:24:27;;;;;;;2.40;1.95;;;4.40;99.90;;;;;;5131462;27;20618;-82
2022/11/06 03:26:55;;;;;;;4.10;2.60;;;6.20;99.90;;;;;;5128771;27;20556;-82
2022/11/06 03:29:32;;;;;;;1.58;1.20;;;4.50;99.90;;;;;;5110135;28;20710;-83
2022/11/06 03:32:08;;;;;;;1.70;1.58;;;4.40;99.90;;;;;;5111177;28;20209;-83
2022/11/06 03:34:42;;;;;;;5.45;1.65;;;4.30;99.90;;;;;;5110275;28;20576;-82
2022/11/06 03:37:16;;;;;;;3.63;2.00;;;4.20;99.90;;;;;;5110572;28;20247;-82
2022/11/06 03:39:47;;;;;;;4.88;2.30;;;4.20;99.90;;;;;;5110183;28;20575;-83
2022/11/06 03:42:18;;;;;;;3.45;2.15;;;4.10;99.90;;;;;;5110618;28;20197;-82
2022/11/06 03:44:51;;;;;;;8.27;2.17;;;4.10;99.90;;;;;;5110463;28;20713;-84
2022/11/06 03:47:23;;;;;;;3.38;2.60;;;4.10;99.90;;;;;;5109856;28;20225;-82
2022/11/06 03:49:54;;;;;;;2.20;1.98;;;4.20;99.90;;;;;;5110524;28;20927;-82
2022/11/06 03:52:29;;;;;;;4.63;2.05;;;4.30;99.90;;;;;;5110173;28;20198;-82
2022/11/06 03:55:00;;;;;;;2.20;2.00;;;4.20;99.90;;;;;;5109506;28;20225;-82
2022/11/06 03:57:31;;;;;;;2.72;2.47;;;4.20;99.90;;;;;;5109538;28;20995;-82
2022/11/06 04:00:01;;;;;;;2.85;2.55;;;4.20;99.90;;;;;;5124463;27;20221;-82
2022/11/06 04:02:31;;;;;;;2.55;2.10;;;4.00;99.90;;;;;;5130627;27;20698;-83
2022/11/06 04:05:04;;;;;;;5.43;1.73;;;4.00;99.90;;;;;;5129424;27;20210;-82
2022/11/06 04:07:35;;;;;;;4.40;2.85;;;5.60;99.90;;;;;;5130111;27;20529;-84
2022/11/06 04:15:41;;;;;;;2.53;2.33;;;3.90;99.90;;;;;;5129775;27;20201;-82
2022/11/06 04:18:13;;;;;;;2.35;1.38;;;3.80;99.90;;;;;;5129937;27;20242;-82
2022/11/06 04:23:43;;;;;;;3.65;2.20;;;3.80;99.90;;;;;;5129886;27;20197;-84
2022/11/06 04:26:34;;;;;;;1.92;1.38;;;3.60;99.90;;;;;;5130197;27;20247;-82
2022/11/06 04:29:13;;;;;;;1.95;1.23;;;3.50;99.90;;;;;;5110180;27;20206;-84
2022/11/06 04:31:47;;;;;;;3.08;1.75;;;3.90;99.90;;;;;;5109372;28;20206;-85
2022/11/06 04:34:21;;;;;;;2.90;2.28;;;3.50;99.90;;;;;;5109255;28;20354;-84
2022/11/06 04:36:53;;;;;;;4.78;2.55;;;3.50;99.90;;;;;;5108863;28;20206;-84
2022/11/06 04:39:28;;;;;;;2.35;2.13;;;3.40;99.90;;;;;;5110066;28;20206;-82
2022/11/06 04:42:05;;;;;;;1.67;1.58;;;3.40;99.90;;;;;;5109541;28;20225;-82
2022/11/06 04:44:37;;;;;;;3.70;2.85;;;3.40;99.90;;;;;;5108905;28;20193;-84
2022/11/06 04:47:08;;;;;;;2.33;2.08;;;3.40;99.90;;;;;;5108607;28;20200;-84
2022/11/06 04:49:38;;;;;;;1.00;1.00;;;3.30;99.90;;;;;;5109541;28;20206;-84
2022/11/06 04:52:10;;;;;;;2.00;1.52;;;3.20;99.90;;;;;;5109373;28;20198;-82
2022/11/06 04:54:37;;;;;;;1.70;1.60;;;2.90;99.90;;;;;;5109923;28;20197;-82
2022/11/06 04:57:05;;;;;;;1.85;1.75;;;2.80;99.90;;;;;;5107921;28;20198;-84
2022/11/06 04:59:35;;;;;;;1.63;1.52;;;2.80;99.90;;;;;;5120130;27;20224;-82
2022/11/06 05:02:02;;;;;;;1.05;0.70;;;2.90;99.90;;;;;;5129434;27;20278;-83
2022/11/06 05:04:31;;;;;;;1.15;1.02;;;2.90;99.90;;;;;;5129370;27;20679;-84
2022/11/06 05:06:58;;;;;;;1.85;1.75;;;2.90;99.90;;;;;;5128844;27;20197;-84
2022/11/06 05:09:25;;;;;;;1.42;1.35;;;2.70;99.90;;;;;;5128141;27;20186;-84
2022/11/06 05:11:52;;;;;;;1.48;1.35;;;2.70;99.90;;;;;;5129407;27;20201;-83
2022/11/06 05:14:19;;;;;;;2.35;2.15;;;2.60;99.90;;;;;;5129590;27;20231;-84
2022/11/06 05:16:46;;;;;;;2.95;1.88;;;2.30;99.90;;;;;;5128360;27;20231;-84
2022/11/06 05:19:12;;;;;;;1.35;1.25;;;2.40;99.90;;;;;;5129437;27;20199;-84
2022/11/06 05:24:25;;;;;;;5.80;2.15;;;2.60;99.90;;;;;;5129462;27;20360;-84
2022/11/06 05:26:52;;;;;;;1.95;1.83;;;2.70;99.90;;;;;;5126211;27;20200;-84
2022/11/06 05:29:19;;;;;;;2.15;2.05;;;2.80;99.90;;;;;;5108786;28;20267;-84
2022/11/06 05:31:46;;;;;;;2.30;1.45;;;2.80;99.90;;;;;;5108325;28;20224;-84
2022/11/06 05:34:13;;;;;;;2.22;1.67;;;2.70;99.90;;;;;;5108542;28;20668;-84
2022/11/06 05:36:41;;;;;;;1.25;1.15;;;3.10;99.90;;;;;;5107126;28;20232;-84
2022/11/06 05:39:08;;;;;;;3.92;3.58;;;2.60;99.90;;;;;;5108574;28;20593;-84
2022/11/06 05:41:35;;;;;;;2.78;1.67;;;2.50;99.90;;;;;;5107953;28;20229;-84
2022/11/06 05:44:02;;;;;;;3.65;2.20;;;3.00;99.90;;;;;;5108679;28;20242;-84
2022/11/06 05:46:29;;;;;;;3.80;1.35;;;2.80;99.90;;;;;;5108175;28;20300;-84
2022/11/06 05:48:56;;;;;;;6.45;3.10;;;2.90;99.90;;;;;;5108009;28;20204;-84
2022/11/06 05:51:22;;;;;;;8.13;1.45;;;2.80;99.90;;;;;;5107777;28;20194;-83
2022/11/06 05:53:51;;;;;;;2.10;2.00;;;2.80;99.90;;;;;;5108007;28;20864;-83
2022/11/06 05:56:17;;;;;;;1.17;1.17;;;2.90;99.90;;;;;;5107803;28;20296;-83
2022/11/06 05:58:44;;;;;;;3.25;1.95;;;2.80;99.90;;;;;;5112154;28;20220;-83
2022/11/06 06:01:12;;;;;;;1.88;1.63;;;3.50;99.90;;;;;;5128293;28;20252;-83
2022/11/06 06:03:39;;;;;;;1.58;1.40;;;2.60;99.90;;;;;;5127881;28;20201;-83
2022/11/06 06:06:06;;;;;;;1.73;1.63;;;2.50;99.90;;;;;;5128737;27;20299;-83
2022/11/06 06:08:33;;;;;;;2.35;1.50;;;2.60;99.90;;;;;;5127304;27;20211;-83
2022/11/06 06:11:07;;;;;;;2.28;1.63;;;2.70;99.90;;;;;;5128792;27;20296;-83
2022/11/06 06:13:36;;;;;;;1.92;1.83;;;2.70;99.90;;;;;;5128457;27;20202;-83
2022/11/06 06:16:03;;;;;;;1.50;1.40;;;2.60;99.90;;;;;;5127957;28;20231;-83
2022/11/06 06:18:30;;;;;;;1.60;1.50;;;2.50;99.90;;;;;;5129170;27;20606;-85
2022/11/06 06:20:57;;;;;;;4.57;3.10;;;2.40;99.90;;;;;;5132750;27;20226;-82
2022/11/06 06:23:24;;;;;;;5.88;1.42;;;2.50;99.90;;;;;;5132579;27;20208;-82
2022/11/06 06:25:51;;;;;;;1.38;1.23;;;2.60;99.90;;;;;;5132868;27;20199;-83
2022/11/06 06:28:19;;;;;;;2.20;2.00;;;2.60;99.90;;;;;;5117669;27;20288;-82
2022/11/06 06:30:46;;;;;;;2.97;1.27;;;3.50;99.90;;;;;;5111856;28;20237;-83
2022/11/06 06:33:13;;;;;;;2.17;1.92;;;2.60;99.90;;;;;;5112108;28;20470;-83
2022/11/06 06:35:40;;;;;;;3.15;2.65;;;2.90;99.90;;;;;;5111605;28;20712;-83
2022/11/06 06:38:07;;;;;;;2.55;2.38;;;2.90;99.90;;;;;;5111216;28;20205;-82
2022/11/06 06:40:33;;;;;;;1.77;1.67;;;3.00;99.90;;;;;;5111794;28;20224;-83
2022/11/06 06:43:00;;;;;;;2.20;2.00;;;2.90;99.90;;;;;;5112031;28;20288;-83
2022/11/06 06:45:28;;;;;;;1.45;1.13;;;3.00;99.90;;;;;;5111173;28;20197;-82
2022/11/06 06:47:55;;;;;;;1.20;1.13;;;3.00;99.90;;;;;;5111589;28;20721;-82
2022/11/06 06:50:22;;;;;;;4.60;3.03;;;3.10;99.90;;;;;;5111538;28;20194;-82
2022/11/06 06:52:49;;;;;;;2.03;1.25;;;3.10;99.90;;;;;;5111522;28;20208;-82
2022/11/06 06:55:16;;;;;;;2.42;2.25;;;3.10;99.90;;;;;;5111621;28;20621;-82
2022/11/06 06:57:43;;;;;;;4.95;4.15;;;3.20;99.90;;;;;;5110821;28;20212;-83
2022/11/06 07:00:10;;;;;;;3.03;2.42;;;3.30;99.90;;;;;;5127162;27;20398;-83
2022/11/06 07:02:39;;;;;;;1.70;1.60;;;3.30;99.90;;;;;;5131855;27;20228;-83
2022/11/06 07:05:06;;;;;;;2.25;1.80;;;3.30;99.90;;;;;;5132106;27;20251;-83
2022/11/06 07:07:33;;;;;;;3.83;3.25;;;3.50;99.90;;;;;;5130880;27;20200;-82
2022/11/06 07:09:59;;;;;;;3.65;2.75;;;3.60;99.90;;;;;;5130674;27;20220;-82
2022/11/06 07:12:27;;;;;;;2.35;1.83;;;3.60;99.90;;;;;;5131544;27;20197;-83
2022/11/06 07:14:54;;;;;;;2.53;1.95;;;3.60;99.90;;;;;;5131399;27;20209;-82
2022/11/06 07:17:20;;;;;;;3.58;1.92;;;3.70;99.90;;;;;;5131365;27;20247;-82
2022/11/06 07:19:49;;;;;;;4.32;2.25;;;4.70;99.90;;;;;;5131321;27;20232;-82
2022/11/06 07:22:16;;;;;;;2.40;2.20;;;4.60;99.90;;;;;;5131422;27;20232;-82
2022/11/06 07:24:43;;;;;;;3.65;2.10;;;5.10;99.90;;;;;;5131554;27;20197;-82
2022/11/06 07:27:09;;;;;;;3.00;2.75;;;4.00;99.90;;;;;;5126059;27;20206;-83
2022/11/06 07:29:36;;;;;;;1.40;1.30;;;3.90;99.90;;;;;;5110144;28;20222;-83
2022/11/06 07:32:04;;;;;;;3.47;1.98;;;4.00;99.90;;;;;;5111113;28;20623;-82
2022/11/06 07:34:31;;;;;;;3.70;1.92;;;3.90;99.90;;;;;;5110610;28;20202;-84
2022/11/06 07:36:59;;;;;;;1.30;1.20;;;4.00;99.90;;;;;;5110264;28;20229;-82
2022/11/06 07:39:26;;;;;;;3.45;1.67;;;3.90;99.90;;;;;;5109887;28;20553;-83
2022/11/06 07:41:53;;;;;;;2.17;1.55;;;4.10;99.90;;;;;;5110637;28;20225;-83
2022/11/06 07:44:20;;;;;;;2.25;1.75;;;4.00;99.90;;;;;;5110874;28;20234;-83
2022/11/06 07:46:46;;;;;;;2.30;1.80;;;4.00;99.90;;;;;;5109656;27;20219;-83
2022/11/06 07:49:14;;;;;;;3.08;2.35;;;4.00;99.90;;;;;;5110873;28;20297;-82
2022/11/06 07:51:41;;;;;;;2.70;1.90;;;3.90;99.90;;;;;;5110301;28;20206;-83
2022/11/06 07:54:11;;;;;;;2.15;1.25;;;3.90;99.90;;;;;;5110319;28;20240;-83
2022/11/06 07:56:37;;;;;;;1.05;0.90;;;3.90;99.90;;;;;;5109864;28;20290;-83
2022/11/06 07:59:04;;;;;;;4.13;2.17;;;4.00;99.90;;;;;;5117480;27;20275;-83
2022/11/06 08:01:31;;;;;;;1.35;1.25;;;3.80;99.90;;;;;;5130452;27;20694;-83
2022/11/06 08:03:58;;;;;;;2.67;1.63;;;3.60;99.90;;;;;;5130558;27;20193;-83
2022/11/06 08:06:25;;;;;;;3.13;1.85;;;4.10;99.90;;;;;;5129551;27;20271;-84
2022/11/06 08:08:52;;;;;;;2.15;1.75;;;3.70;99.90;;;;;;5129421;27;20204;-83
2022/11/06 08:11:20;;;;;;;2.97;2.50;;;3.80;99.90;;;;;;5130198;27;20201;-83
2022/11/06 08:13:47;;;;;;;1.83;1.73;;;3.70;99.90;;;;;;5130828;27;20255;-83
2022/11/06 08:16:14;;;;;;;2.15;1.95;;;3.70;99.90;;;;;;5129950;27;20726;-83
2022/11/06 08:18:42;;;;;;;1.58;1.48;;;3.80;99.90;;;;;;5130768;27;20193;-83
2022/11/06 08:21:09;;;;;;;7.40;3.20;;;4.40;99.90;;;;;;5129898;27;20221;-83
2022/11/06 08:23:36;;;;;;;2.72;2.30;;;3.90;99.90;;;;;;5130232;27;20292;-84
2022/11/06 08:26:05;;;;;;;1.73;1.60;;;3.90;99.90;;;;;;5130486;27;20202;-83
2022/11/06 08:28:34;;;;;;;2.00;1.52;;;3.90;99.90;;;;;;5113201;27;20213;-84
2022/11/06 08:31:04;;;;;;;2.30;2.10;;;4.20;99.90;;;;;;5109632;28;20221;-83
2022/11/06 08:33:31;;;;;;;2.85;2.25;;;3.80;99.90;;;;;;5109324;28;20194;-84
2022/11/06 08:36:01;;;;;;;2.60;1.25;;;3.60;99.90;;;;;;5109161;28;20200;-83
2022/11/06 08:38:28;;;;;;;3.95;1.95;;;3.50;99.90;;;;;;5108932;28;20556;-83
2022/11/06 08:40:54;;;;;;;1.77;1.67;;;3.60;99.90;;;;;;5109517;28;20198;-83
2022/11/06 08:43:25;;;;;;;1.73;1.63;;;3.80;99.90;;;;;;5109466;28;20588;-83
2022/11/06 08:45:53;;;;;;;1.75;1.60;;;3.90;99.90;;;;;;5109313;28;20213;-83
2022/11/06 08:48:20;;;;;;;5.20;2.42;;;4.00;99.90;;;;;;5107925;28;20650;-83
2022/11/06 08:50:47;;;;;;;3.20;2.20;;;4.10;99.90;;;;;;5109850;28;20288;-83
2022/11/06 08:53:14;;;;;;;1.48;1.17;;;4.20;99.90;;;;;;5109225;28;20205;-83
2022/11/06 08:55:41;;;;;;;4.85;2.30;;;4.30;99.90;;;;;;5109235;28;20233;-83
2022/11/06 08:58:08;;;;;;;1.50;1.35;;;4.20;99.90;;;;;;5108963;28;20321;-83
2022/11/06 09:00:36;;;;;;;4.25;2.65;;;4.20;99.90;;;;;;5128491;27;20288;-83
2022/11/06 09:03:06;;;;;;;1.83;1.73;;;4.20;99.90;;;;;;5129186;27;20924;-83
2022/11/06 09:05:33;;;;;;;7.15;2.35;;;4.40;99.90;;;;;;5129656;27;20228;-83
2022/11/06 09:08:00;;;;;;;4.20;2.55;;;4.60;99.90;;;;;;5127740;27;20208;-84
2022/11/06 09:10:28;;;;;;;3.83;3.63;;;4.60;99.90;;;;;;5129516;27;20209;-83
2022/11/06 09:12:57;;;;;;;2.53;1.85;;;4.80;99.90;;;;;;5129570;27;20201;-83
2022/11/06 09:15:24;;;;;;;4.95;2.78;;;4.80;99.90;;;;;;5128630;27;20213;-84
2022/11/06 09:17:52;;;;;;;3.40;2.88;;;5.00;99.90;;;;;;5128736;27;20197;-83
2022/11/06 09:20:22;;;;;;;5.70;2.60;;;5.20;99.90;;;;;;5129010;27;20604;-83
2022/11/06 09:22:50;;;;;;;3.38;2.78;;;5.30;99.90;;;;;;5127889;27;20741;-84
2022/11/06 09:25:18;;;;;;;3.08;2.15;;;5.40;99.90;;;;;;5129274;27;20632;-82
2022/11/06 09:27:45;;;;;;;6.28;3.78;;;5.50;99.90;;;;;;5118584;27;20208;-83
2022/11/06 09:30:15;;;;;;;2.72;2.55;;;5.50;99.90;;;;;;5108467;28;20282;-82
2022/11/06 09:32:46;;;;;;;4.78;3.05;;;5.60;99.90;;;;;;5108793;28;20197;-83
2022/11/06 09:35:12;;;;;;;2.22;2.00;;;6.10;99.90;;;;;;5108377;28;20190;-83
2022/11/06 09:37:41;;;;;;;2.45;2.25;;;5.70;99.90;;;;;;5107997;28;20746;-82
2022/11/06 09:40:13;;;;;;;4.47;2.50;;;5.70;99.90;;;;;;5108783;28;20534;-82
2022/11/06 09:42:50;;;;;;;1.80;1.70;;;5.80;99.90;;;;;;5108112;28;20714;-82
2022/11/06 09:45:21;;;;;;;4.07;2.55;;;6.00;99.90;;;;;;5108094;28;20201;-82
2022/11/06 09:47:54;;;;;;;2.65;2.13;;;6.10;99.90;;;;;;5108191;28;20205;-83
2022/11/06 09:50:27;;;;;;;3.45;1.70;;;6.20;99.90;;;;;;5108509;28;20293;-82
2022/11/06 09:52:59;;;;;;;1.70;1.50;;;6.30;99.90;;;;;;5107860;28;20201;-82
2022/11/06 09:55:30;;;;;;;2.75;1.90;;;6.50;99.90;;;;;;5108387;28;20205;-81
2022/11/06 09:57:59;;;;;;;2.80;2.30;;;8.10;99.90;;;;;;5108074;28;20201;-82
2022/11/06 10:00:26;;;;;;;2.22;1.77;;;6.80;99.90;;;;;;5126260;27;20219;-82
2022/11/06 10:02:57;;;;;;;9.40;2.63;;;6.80;99.90;;;;;;5128981;28;20252;-82
2022/11/06 10:05:26;;;;;;;1.90;1.65;;;6.90;99.90;;;;;;5127953;27;20281;-82
2022/11/06 10:07:56;;;;;;;2.47;2.08;;;7.10;99.90;;;;;;5127507;27;20192;-82
2022/11/06 10:10:31;;;;;;;1.80;1.70;;;7.40;99.90;;;;;;5129139;28;20197;-82
2022/11/06 10:13:12;;;;;;;2.75;1.95;;;7.30;99.90;;;;;;5129037;28;20208;-82
2022/11/06 10:15:45;;;;;;;2.67;2.47;;;7.50;99.90;;;;;;5128106;27;20204;-82
2022/11/06 10:18:22;;;;;;;2.95;1.45;;;7.50;99.90;;;;;;5128082;28;20283;-82
2022/11/06 10:20:53;;;;;;;2.88;2.15;;;7.70;99.90;;;;;;5128849;27;20601;-82
2022/11/06 10:23:31;;;;;;;2.97;2.00;;;7.70;99.90;;;;;;5128642;27;20221;-82
2022/11/06 10:26:09;;;;;;;2.50;1.57;;;7.80;99.90;;;;;;5128394;27;20212;-82
2022/11/06 10:28:53;;;;;;;7.50;2.60;;;7.90;99.90;;;;;;5111482;27;20627;-82
2022/11/06 10:31:28;;;;;;;1.77;1.67;;;8.00;99.90;;;;;;5108145;28;20654;-82
2022/11/06 10:34:01;;;;;;;4.77;3.20;;;8.00;99.90;;;;;;5106376;28;20717;-82
2022/11/06 10:36:31;;;;;;;2.70;2.13;;;8.00;99.90;;;;;;5115779;28;20675;-82
2022/11/06 10:39:03;;;;;;;4.40;3.07;;;8.30;99.90;;;;;;5128462;27;20633;-82
2022/11/06 10:41:36;;;;;;;2.20;1.47;;;8.30;99.90;;;;;;5127512;28;20623;-82
2022/11/06 10:44:08;;;;;;;6.07;3.60;;;8.30;99.90;;;;;;5109480;28;20616;-83
2022/11/06 10:46:39;;;;;;;3.83;2.13;;;8.40;99.90;;;;;;5109937;27;21251;-83
2022/11/06 10:49:16;;;;;;;3.07;2.20;;;8.50;99.90;;;;;;5107337;28;20731;-83
2022/11/06 10:51:57;;;;;;;3.30;2.50;;;8.50;99.90;;;;;;5109323;28;20619;-82
2022/11/06 10:54:37;;;;;;;5.10;2.03;;;8.70;99.90;;;;;;5107719;28;20710;-82
2022/11/06 10:57:19;;;;;;;3.73;2.73;;;8.80;99.90;;;;;;5105891;28;20611;-82
2022/11/06 10:59:46;;;;;;;3.10;2.10;;;8.80;99.90;;;;;;5118753;28;20622;-82
2022/11/06 11:02:23;;;;;;;3.13;2.93;;;8.90;99.90;;;;;;5127332;28;20781;-83
2022/11/06 11:04:50;;;;;;;3.43;2.33;;;8.90;99.90;;;;;;5129943;27;20606;-82
2022/11/06 11:07:17;;;;;;;2.90;2.60;;;8.90;99.90;;;;;;5131843;27;20713;-82
2022/11/06 11:09:48;;;;;;;3.20;2.80;;;8.90;99.90;;;;;;5131167;27;21146;-82
2022/11/06 11:12:28;;;;;;;4.70;3.30;;;8.90;99.90;;;;;;5132100;27;20610;-82
2022/11/06 11:15:14;;;;;;;3.07;2.30;;;8.90;99.90;;;;;;5131754;27;20622;-82
2022/11/06 11:17:42;;;;;;;2.70;2.50;;;9.20;99.90;;;;;;5131536;27;21185;-82
2022/11/06 11:20:30;;;;;;;3.37;2.10;;;9.10;99.90;;;;;;5131602;27;21006;-82
2022/11/06 11:23:13;;;;;;;1.87;1.70;;;9.30;99.90;;;;;;5131379;27;20867;-82
2022/11/06 11:25:44;;;;;;;2.63;2.00;;;9.20;99.90;;;;;;5131187;27;20633;-82
2022/11/06 11:28:28;;;;;;;2.67;2.47;;;9.10;99.90;;;;;;5118007;27;20619;-82
2022/11/06 11:30:59;;;;;;;2.80;2.27;;;9.10;99.90;;;;;;5110616;28;20664;-83
2022/11/06 11:33:26;;;;;;;3.07;2.70;;;9.30;99.90;;;;;;5110578;28;20628;-82
2022/11/06 11:35:54;;;;;;;2.33;2.17;;;9.20;99.90;;;;;;5110608;28;20615;-82
2022/11/06 11:38:21;;;;;;;1.80;1.70;;;9.10;99.90;;;;;;5110235;28;20604;-82
2022/11/06 11:40:50;;;;;;;3.00;2.73;;;9.20;99.90;;;;;;5110833;28;20608;-82
2022/11/06 11:43:25;;;;;;;4.07;3.00;;;9.10;99.90;;;;;;5109941;28;20670;-82
2022/11/06 11:46:05;;;;;;;3.17;2.27;;;9.10;99.90;;;;;;5110805;28;20693;-82
2022/11/06 11:48:43;;;;;;;3.37;2.33;;;9.40;99.90;;;;;;5109807;28;21027;-82
2022/11/06 11:51:35;;;;;;;1.83;1.67;;;9.40;99.90;;;;;;5110352;28;21173;-82
2022/11/06 11:54:06;;;;;;;2.83;2.47;;;9.30;99.90;;;;;;5100152;28;20639;-82
2022/11/06 11:56:43;;;;;;;2.93;2.10;;;9.20;99.90;;;;;;5110301;28;20718;-82
2022/11/06 11:59:17;;;;;;;5.20;3.00;;;9.30;99.90;;;;;;5117613;27;20658;-81
2022/11/06 12:01:44;;;;;;;3.33;2.00;;;9.20;99.90;;;;;;5130713;27;20724;-82
2022/11/06 12:04:20;;;;;;;3.20;1.90;;;9.30;99.90;;;;;;5129921;27;20658;-82
2022/11/06 12:06:55;;;;;;;3.53;3.07;;;9.30;99.90;;;;;;5130159;27;20622;-82
2022/11/06 12:09:23;;;;;;;2.23;2.03;;;9.20;99.90;;;;;;5127056;27;20720;-82
2022/11/06 12:11:54;;;;;;;4.00;2.77;;;9.30;99.90;;;;;;5115103;27;20632;-81
2022/11/06 12:14:34;;;;;;;1.73;1.50;;;9.40;99.90;;;;;;5110113;28;20627;-83
2022/11/06 12:17:19;;;;;;;2.77;1.70;;;9.40;99.90;;;;;;5119157;27;20639;-82
2022/11/06 12:19:52;;;;;;;2.53;1.93;;;9.40;99.90;;;;;;5109150;28;20616;-82
2022/11/06 12:22:26;;;;;;;1.50;1.40;;;9.40;99.90;;;;;;5107245;28;20742;-82
2022/11/06 12:24:57;;;;;;;1.93;1.83;;;9.30;99.90;;;;;;5106451;28;20627;-82
2022/11/06 12:27:29;;;;;;;2.80;1.90;;;9.40;99.90;;;;;;5114417;27;20666;-83
2022/11/06 12:30:03;;;;;;;3.80;2.67;;;9.80;99.90;;;;;;5128464;27;20663;-82
2022/11/06 12:32:59;;;;;;;2.70;2.07;;;9.60;99.90;;;;;;5128516;27;20618;-82
2022/11/06 12:35:28;;;;;;;1.33;1.17;;;9.50;99.90;;;;;;5107106;28;20611;-82
2022/11/06 12:38:04;;;;;;;3.00;2.80;;;9.50;99.90;;;;;;5108134;28;21321;-82
2022/11/06 12:40:35;;;;;;;3.17;2.43;;;10.10;99.90;;;;;;5109678;28;20715;-82
2022/11/06 12:43:14;;;;;;;1.73;1.20;;;9.50;99.90;;;;;;5109596;28;20655;-82
2022/11/06 12:45:57;;;;;;;4.00;2.33;;;9.60;99.90;;;;;;5108954;28;20714;-82
2022/11/06 12:48:43;;;;;;;1.93;1.80;;;9.70;99.90;;;;;;5109204;28;20607;-82
2022/11/06 12:51:19;;;;;;;1.90;1.80;;;9.70;99.90;;;;;;5109186;28;21199;-82
2022/11/06 12:53:57;;;;;;;1.80;1.70;;;9.70;99.90;;;;;;5108026;28;20611;-82
2022/11/06 12:56:35;;;;;;;2.07;1.77;;;9.70;99.90;;;;;;5106707;28;20611;-81
2022/11/06 12:59:12;;;;;;;1.37;1.10;;;9.80;99.90;;;;;;5113995;27;21064;-81
2022/11/06 13:01:46;;;;;;;2.50;1.70;;;9.80;99.90;;;;;;5127634;27;20622;-81
2022/11/06 13:04:34;;;;;;;1.83;1.60;;;9.80;99.90;;;;;;5127795;27;20773;-81
2022/11/06 13:07:36;;;;;;;3.00;2.60;;;9.90;99.90;;;;;;5127540;27;21224;-81
2022/11/06 13:10:23;;;;;;;4.30;1.83;;;10.10;99.60;;;;;;5115097;27;21065;-81
2022/11/06 13:13:00;;;;;;;2.77;2.23;;;10.10;99.40;;;;;;5128823;27;20734;-81
2022/11/06 13:15:33;;;;;;;2.57;2.00;;;10.20;99.50;;;;;;5129280;27;21163;-81
2022/11/06 13:18:07;;;;;;;2.20;2.00;;;10.20;99.60;;;;;;5128958;27;20742;-81
2022/11/06 13:20:43;;;;;;;2.37;2.20;;;10.10;99.50;;;;;;5128950;27;20727;-81
2022/11/06 13:23:16;;;;;;;5.17;2.63;;;10.20;99.70;;;;;;5128276;27;20658;-81
2022/11/06 13:25:50;;;;;;;4.30;2.27;;;10.20;99.20;;;;;;5129018;27;20699;-80
2022/11/06 13:28:29;;;;;;;3.03;2.40;;;10.20;99.10;;;;;;5114850;27;20643;-81
2022/11/06 13:30:58;;;;;;;2.90;2.40;;;10.20;99.50;;;;;;5114924;27;20709;-81